Time;durP1;ratioP1;P1;durP2;ratioP2;P2;SDS_P1;SDS_P2;PMS_P1;PMS_P2;Temp;Humidity;BMP_temperature;BMP_pressure;BME280_temperature;BME280_humidity;BME280_pressure;Samples;Min_cycle;Max_cycle;Signal;HPM_P1;HPM_P2
2023/08/21 00:00:58;;;;;;;;;;;22.40;99.90;;;;;;2056680;28;19964;-65
2023/08/21 00:01:59;;;;;;;;;;;22.40;99.90;;;;;;2059468;28;20272;-65
2023/08/21 00:02:59;;;;;;;;;;;22.40;99.90;;;;;;2057552;28;20036;-66
2023/08/21 00:04:00;;;;;;;;;;;22.50;99.90;;;;;;2059522;28;19917;-65
2023/08/21 00:05:00;;;;;;;;;;;22.50;99.90;;;;;;2058798;28;20020;-65
2023/08/21 00:06:01;;;;;;;;;;;22.50;99.90;;;;;;2058970;28;19937;-65
2023/08/21 00:07:01;;;;;;;;;;;22.50;99.90;;;;;;2055118;28;20006;-65
2023/08/21 00:08:02;;;;;;;;;;;22.50;99.90;;;;;;2060843;28;19924;-65
2023/08/21 00:09:02;;;;;;;;;;;22.50;99.90;;;;;;2058744;28;20004;-65
2023/08/21 00:10:03;;;;;;;;;;;22.60;99.90;;;;;;2053644;28;19949;-65
2023/08/21 00:11:04;;;;;;;;;;;22.60;99.90;;;;;;2056721;28;19918;-65
2023/08/21 00:12:04;;;;;;;;;;;22.60;99.90;;;;;;2060848;28;19925;-65
2023/08/21 00:13:05;;;;;;;;;;;22.60;99.90;;;;;;2058940;28;20325;-65
2023/08/21 00:14:06;;;;;;;;;;;22.60;99.90;;;;;;2059576;28;19910;-65
2023/08/21 00:15:08;;;;;;;;;;;22.60;99.90;;;;;;2059640;28;20010;-65
2023/08/21 00:16:08;;;;;;;;;;;22.50;99.90;;;;;;2059344;28;20036;-65
2023/08/21 00:17:08;;;;;;;;;;;22.50;99.90;;;;;;2061386;28;19941;-65
2023/08/21 00:18:09;;;;;;;;;;;22.50;99.90;;;;;;2059419;28;19918;-66
2023/08/21 00:19:09;;;;;;;;;;;22.50;99.90;;;;;;2059529;28;19918;-65
2023/08/21 00:20:10;;;;;;;;;;;22.50;99.90;;;;;;2059658;28;20341;-65
2023/08/21 00:21:11;;;;;;;;;;;22.50;99.90;;;;;;2061579;28;19937;-65
2023/08/21 00:22:11;;;;;;;;;;;22.40;99.90;;;;;;2059677;28;20300;-65
2023/08/21 00:23:12;;;;;;;;;;;22.40;99.90;;;;;;2055055;28;19919;-65
2023/08/21 00:24:12;;;;;;;;;;;22.40;99.90;;;;;;2058769;28;19961;-65
2023/08/21 00:25:13;;;;;;;;;;;22.40;99.90;;;;;;2058763;28;20475;-65
2023/08/21 00:26:13;;;;;;;;;;;22.50;99.90;;;;;;2056510;28;19940;-65
2023/08/21 00:27:14;;;;;;;;;;;22.40;99.90;;;;;;2061290;28;20300;-65
2023/08/21 00:28:14;;;;;;;;;;;22.40;99.90;;;;;;2058958;28;20248;-65
2023/08/21 00:29:15;;;;;;;;;;;22.40;99.90;;;;;;2043444;28;23226;-65
2023/08/21 00:30:15;;;;;;;;;;;22.40;99.90;;;;;;2048916;28;20266;-65
2023/08/21 00:31:16;;;;;;;;;;;22.50;99.90;;;;;;2059429;28;20389;-66
2023/08/21 00:32:18;;;;;;;;;;;22.50;99.90;;;;;;2060936;28;20016;-65
2023/08/21 00:33:18;;;;;;;;;;;22.50;99.90;;;;;;2059849;28;19918;-67
2023/08/21 00:34:19;;;;;;;;;;;22.50;99.90;;;;;;2058650;28;19917;-64
2023/08/21 00:35:19;;;;;;;;;;;22.50;99.90;;;;;;2050671;28;19918;-64
2023/08/21 00:36:20;;;;;;;;;;;22.50;99.90;;;;;;2060495;28;19985;-64
2023/08/21 00:37:20;;;;;;;;;;;22.40;99.90;;;;;;2059242;28;19921;-64
2023/08/21 00:38:21;;;;;;;;;;;22.40;99.90;;;;;;2058746;28;19945;-64
2023/08/21 00:39:21;;;;;;;;;;;22.40;99.90;;;;;;2050075;28;19914;-64
2023/08/21 00:40:22;;;;;;;;;;;22.40;99.90;;;;;;2056491;28;20373;-64
2023/08/21 00:41:23;;;;;;;;;;;22.30;99.90;;;;;;2054258;28;19979;-64
2023/08/21 00:42:24;;;;;;;;;;;22.40;99.90;;;;;;2058646;28;19926;-66
2023/08/21 00:43:24;;;;;;;;;;;22.30;99.90;;;;;;2050679;28;19922;-66
2023/08/21 00:44:25;;;;;;;;;;;22.30;99.90;;;;;;2056753;28;20416;-65
2023/08/21 00:45:26;;;;;;;;;;;22.30;99.90;;;;;;2057920;28;19952;-63
2023/08/21 00:46:26;;;;;;;;;;;22.30;99.90;;;;;;2049854;28;19972;-66
2023/08/21 00:47:27;;;;;;;;;;;22.30;99.90;;;;;;2058588;28;19924;-65
2023/08/21 00:48:27;;;;;;;;;;;22.30;99.90;;;;;;2066714;28;19917;-65
2023/08/21 00:49:28;;;;;;;;;;;22.20;99.90;;;;;;2058608;28;19924;-64
2023/08/21 00:50:29;;;;;;;;;;;22.20;99.90;;;;;;2060813;28;20181;-64
2023/08/21 00:51:29;;;;;;;;;;;22.20;99.90;;;;;;2054479;28;20360;-63
2023/08/21 00:52:30;;;;;;;;;;;22.10;99.90;;;;;;2059521;28;19917;-64
2023/08/21 00:53:30;;;;;;;;;;;22.10;99.90;;;;;;2059290;28;19913;-63
2023/08/21 00:54:31;;;;;;;;;;;22.10;99.90;;;;;;2064000;28;20385;-65
2023/08/21 00:55:32;;;;;;;;;;;22.10;99.90;;;;;;2055769;28;20004;-65
2023/08/21 00:56:33;;;;;;;;;;;22.10;99.90;;;;;;2056644;28;19920;-66
2023/08/21 00:57:35;;;;;;;;;;;22.20;99.90;;;;;;2058387;28;19924;-65
2023/08/21 00:58:36;;;;;;;;;;;22.10;99.90;;;;;;2060520;28;20005;-65
2023/08/21 00:59:37;;;;;;;;;;;22.10;99.90;;;;;;2058131;28;20683;-66
2023/08/21 01:00:38;;;;;;;;;;;22.10;99.90;;;;;;2058844;28;19929;-66
2023/08/21 01:01:39;;;;;;;;;;;22.10;99.90;;;;;;2050514;28;19918;-65
2023/08/21 01:02:40;;;;;;;;;;;22.10;99.90;;;;;;2052279;28;19919;-65
2023/08/21 01:03:40;;;;;;;;;;;22.10;99.90;;;;;;2058142;28;20009;-66
2023/08/21 01:04:41;;;;;;;;;;;22.10;99.90;;;;;;2050479;28;19917;-65
2023/08/21 01:05:42;;;;;;;;;;;22.10;99.90;;;;;;2056016;28;19918;-63
2023/08/21 01:06:42;;;;;;;;;;;22.10;99.90;;;;;;2057349;28;20022;-66
2023/08/21 01:07:48;;;;;;;;;;;22.00;99.90;;;;;;2059103;28;19953;-66
2023/08/21 01:08:48;;;;;;;;;;;22.00;99.90;;;;;;2061211;28;19921;-65
2023/08/21 01:09:50;;;;;;;;;;;22.00;99.90;;;;;;2057820;28;20008;-67
2023/08/21 01:10:56;;;;;;;;;;;22.10;99.90;;;;;;2055799;28;20321;-65
2023/08/21 01:11:56;;;;;;;;;;;22.10;99.90;;;;;;2057818;28;20520;-66
2023/08/21 01:13:00;;;;;;;;;;;22.00;99.90;;;;;;2054277;28;20120;-65
2023/08/21 01:14:06;;;;;;;;;;;22.10;99.90;;;;;;2058508;28;19924;-65
2023/08/21 01:15:07;;;;;;;;;;;22.10;99.90;;;;;;2056810;28;20013;-65
2023/08/21 01:16:08;;;;;;;;;;;22.10;99.90;;;;;;2059136;28;19933;-66
2023/08/21 01:17:09;;;;;;;;;;;22.10;99.90;;;;;;2059188;28;19988;-66
2023/08/21 01:18:10;;;;;;;;;;;22.10;99.90;;;;;;2058098;28;19960;-65
2023/08/21 01:19:18;;;;;;;;;;;22.20;99.90;;;;;;2057427;28;20316;-65
2023/08/21 01:20:19;;;;;;;;;;;22.10;99.90;;;;;;2055248;28;19925;-64
2023/08/21 01:21:20;;;;;;;;;;;22.20;99.90;;;;;;2060322;28;20015;-65
2023/08/21 01:22:24;;;;;;;;;;;22.20;99.90;;;;;;2050195;28;19922;-66
2023/08/21 01:23:29;;;;;;;;;;;22.20;99.90;;;;;;2046111;28;20480;-65
2023/08/21 01:24:29;;;;;;;;;;;22.20;99.90;;;;;;2058495;28;20008;-65
2023/08/21 01:25:30;;;;;;;;;;;22.20;99.90;;;;;;2059984;28;19917;-65
2023/08/21 01:26:30;;;;;;;;;;;22.20;99.90;;;;;;2058463;28;19957;-65
2023/08/21 01:27:31;;;;;;;;;;;22.20;99.90;;;;;;2058359;28;19914;-65
2023/08/21 01:28:32;;;;;;;;;;;22.30;99.90;;;;;;2050460;28;19969;-65
2023/08/21 01:29:33;;;;;;;;;;;22.30;99.90;;;;;;2060281;28;19917;-65
2023/08/21 01:30:34;;;;;;;;;;;22.30;99.90;;;;;;2056159;28;20640;-64
2023/08/21 01:31:36;;;;;;;;;;;22.30;99.90;;;;;;2058719;28;19961;-65
2023/08/21 01:32:37;;;;;;;;;;;22.30;99.90;;;;;;2058801;28;19922;-64
2023/08/21 01:33:41;;;;;;;;;;;22.30;99.90;;;;;;2058650;28;19925;-64
2023/08/21 01:34:42;;;;;;;;;;;22.30;99.90;;;;;;2059247;28;20219;-64
2023/08/21 01:35:43;;;;;;;;;;;22.30;99.90;;;;;;2060811;28;19972;-64
2023/08/21 01:36:44;;;;;;;;;;;22.30;99.90;;;;;;2059068;28;20228;-65
2023/08/21 01:37:45;;;;;;;;;;;22.30;99.90;;;;;;2056817;28;19914;-65
2023/08/21 01:38:46;;;;;;;;;;;22.30;99.90;;;;;;2057688;28;19960;-64
2023/08/21 01:39:47;;;;;;;;;;;22.30;99.90;;;;;;2058996;28;20392;-65
2023/08/21 01:40:47;;;;;;;;;;;22.30;99.90;;;;;;2059981;28;19936;-65
2023/08/21 01:41:48;;;;;;;;;;;22.30;99.90;;;;;;2058266;28;19925;-65
2023/08/21 01:42:49;;;;;;;;;;;22.30;99.90;;;;;;2058971;28;19921;-64
2023/08/21 01:43:49;;;;;;;;;;;22.30;99.90;;;;;;2059015;28;19972;-64
2023/08/21 01:44:50;;;;;;;;;;;22.30;99.90;;;;;;2059885;28;20344;-65
2023/08/21 01:45:51;;;;;;;;;;;22.30;99.90;;;;;;2048899;28;19925;-65
2023/08/21 01:46:52;;;;;;;;;;;22.30;99.90;;;;;;2056910;28;19918;-66
2023/08/21 01:47:53;;;;;;;;;;;22.20;99.90;;;;;;2058944;28;19918;-66
2023/08/21 01:48:53;;;;;;;;;;;22.20;99.90;;;;;;2068091;28;19952;-66
2023/08/21 01:49:54;;;;;;;;;;;22.20;99.90;;;;;;2066280;28;19921;-65
2023/08/21 01:50:55;;;;;;;;;;;22.20;99.90;;;;;;2058209;28;19910;-66
2023/08/21 01:51:56;;;;;;;;;;;22.20;99.90;;;;;;2054361;28;20430;-65
2023/08/21 01:52:59;;;;;;;;;;;22.20;99.90;;;;;;2060744;28;19999;-65
2023/08/21 01:54:01;;;;;;;;;;;22.20;99.90;;;;;;2058019;28;20626;-65
2023/08/21 01:55:03;;;;;;;;;;;22.20;99.90;;;;;;2058207;28;19914;-66
2023/08/21 01:56:04;;;;;;;;;;;22.10;99.90;;;;;;2058135;28;20786;-65
2023/08/21 01:57:06;;;;;;;;;;;22.10;99.90;;;;;;2048898;28;19914;-65
2023/08/21 01:58:07;;;;;;;;;;;22.10;99.90;;;;;;2053473;28;20392;-66
2023/08/21 01:59:07;;;;;;;;;;;22.00;99.90;;;;;;2064487;28;19918;-65
2023/08/21 02:00:09;;;;;;;;;;;22.10;99.90;;;;;;2057548;28;19961;-65
2023/08/21 02:01:15;;;;;;;;;;;22.10;99.90;;;;;;2057651;28;20022;-66
2023/08/21 02:02:16;;;;;;;;;;;22.00;99.90;;;;;;2056299;28;19913;-67
2023/08/21 02:03:16;;;;;;;;;;;22.00;99.90;;;;;;2059944;28;19943;-65
2023/08/21 02:04:17;;;;;;;;;;;22.00;99.90;;;;;;2058427;28;20329;-66
2023/08/21 02:05:17;;;;;;;;;;;22.00;99.90;;;;;;2058087;28;19918;-65
2023/08/21 02:06:18;;;;;;;;;;;22.00;99.90;;;;;;2058154;28;19972;-64
2023/08/21 02:07:19;;;;;;;;;;;22.00;99.90;;;;;;2058160;28;19921;-64
2023/08/21 02:08:19;;;;;;;;;;;21.90;99.90;;;;;;2060206;28;20157;-64
2023/08/21 02:09:20;;;;;;;;;;;21.90;99.90;;;;;;2053153;28;20281;-66
2023/08/21 02:10:21;;;;;;;;;;;21.90;99.90;;;;;;2054749;28;19965;-64
2023/08/21 02:11:21;;;;;;;;;;;21.90;99.90;;;;;;2056425;28;19968;-64
2023/08/21 02:12:22;;;;;;;;;;;21.80;99.90;;;;;;2060011;28;19921;-64
2023/08/21 02:13:22;;;;;;;;;;;21.90;99.90;;;;;;2058036;28;19917;-64
2023/08/21 02:14:23;;;;;;;;;;;21.90;99.90;;;;;;2057864;28;19920;-64
2023/08/21 02:15:23;;;;;;;;;;;21.90;99.90;;;;;;2049970;28;20045;-63
2023/08/21 02:16:24;;;;;;;;;;;21.80;99.90;;;;;;2050068;28;20042;-65
2023/08/21 02:17:27;;;;;;;;;;;21.80;99.90;;;;;;2052021;28;19922;-65
2023/08/21 02:18:27;;;;;;;;;;;21.80;99.90;;;;;;2059327;28;19949;-66
2023/08/21 02:19:28;;;;;;;;;;;21.80;99.90;;;;;;2058153;28;19924;-65
2023/08/21 02:20:28;;;;;;;;;;;21.80;99.90;;;;;;2058601;28;19914;-64
2023/08/21 02:21:29;;;;;;;;;;;21.80;99.90;;;;;;2053966;28;19918;-64
2023/08/21 02:22:29;;;;;;;;;;;21.70;99.90;;;;;;2059930;28;19918;-65
2023/08/21 02:23:30;;;;;;;;;;;21.70;99.90;;;;;;2057961;28;20331;-66
2023/08/21 02:24:30;;;;;;;;;;;21.70;99.90;;;;;;2059444;28;19924;-63
2023/08/21 02:25:31;;;;;;;;;;;21.70;99.90;;;;;;2060049;28;20004;-63
2023/08/21 02:26:32;;;;;;;;;;;21.70;99.90;;;;;;2059719;28;19924;-66
2023/08/21 02:27:32;;;;;;;;;;;21.70;99.90;;;;;;2061682;28;19914;-65
2023/08/21 02:28:33;;;;;;;;;;;21.70;99.90;;;;;;2057333;28;20106;-64
2023/08/21 02:29:33;;;;;;;;;;;21.70;99.90;;;;;;2057534;28;20316;-64
2023/08/21 02:30:43;;;;;;;;;;;21.70;99.90;;;;;;2052534;28;20322;-64
2023/08/21 02:31:43;;;;;;;;;;;21.70;99.90;;;;;;2062096;28;20197;-64
2023/08/21 02:32:44;;;;;;;;;;;21.70;99.90;;;;;;2060212;28;20362;-65
2023/08/21 02:33:44;;;;;;;;;;;21.70;99.90;;;;;;2060218;28;19971;-64
2023/08/21 02:34:46;;;;;;;;;;;21.70;99.90;;;;;;2059637;28;19922;-64
2023/08/21 02:35:49;;;;;;;;;;;21.70;99.90;;;;;;2050411;28;19922;-65
2023/08/21 02:36:50;;;;;;;;;;;21.70;99.90;;;;;;2056735;28;19968;-64
2023/08/21 02:37:50;;;;;;;;;;;21.70;99.90;;;;;;2065380;28;19914;-64
2023/08/21 02:38:51;;;;;;;;;;;21.70;99.90;;;;;;2061066;28;22692;-65
2023/08/21 02:39:51;;;;;;;;;;;21.70;99.90;;;;;;2059712;28;20016;-64
2023/08/21 02:40:52;;;;;;;;;;;21.70;99.90;;;;;;2059548;28;19918;-64
2023/08/21 02:41:52;;;;;;;;;;;21.70;99.90;;;;;;2056882;28;19914;-64
2023/08/21 02:42:53;;;;;;;;;;;21.70;99.90;;;;;;2054788;28;20390;-64
2023/08/21 02:43:53;;;;;;;;;;;21.70;99.90;;;;;;2049591;28;19914;-64
2023/08/21 02:44:55;;;;;;;;;;;21.70;99.90;;;;;;2052580;28;20264;-64
2023/08/21 02:45:55;;;;;;;;;;;21.70;99.90;;;;;;2059729;28;19918;-64
2023/08/21 02:46:56;;;;;;;;;;;21.70;99.90;;;;;;2061941;28;19972;-64
2023/08/21 02:47:58;;;;;;;;;;;21.60;99.90;;;;;;2057545;28;19914;-64
2023/08/21 02:48:58;;;;;;;;;;;21.70;99.90;;;;;;2058836;28;20080;-65
2023/08/21 02:49:59;;;;;;;;;;;21.70;99.90;;;;;;2046771;28;19919;-64
2023/08/21 02:51:00;;;;;;;;;;;21.60;99.90;;;;;;2048946;28;20405;-65
2023/08/21 02:52:02;;;;;;;;;;;21.60;99.90;;;;;;2050934;28;20044;-64
2023/08/21 02:53:02;;;;;;;;;;;21.60;99.90;;;;;;2058191;28;19921;-64
2023/08/21 02:54:03;;;;;;;;;;;21.60;99.90;;;;;;2060156;28;19910;-64
2023/08/21 02:55:04;;;;;;;;;;;21.60;99.90;;;;;;2060014;28;19921;-65
2023/08/21 02:56:04;;;;;;;;;;;21.60;99.90;;;;;;2062160;28;20346;-71
2023/08/21 02:57:05;;;;;;;;;;;21.60;99.90;;;;;;2051435;28;20330;-72
2023/08/21 02:58:06;;;;;;;;;;;21.60;99.90;;;;;;2050088;28;19919;-79
2023/08/21 02:59:07;;;;;;;;;;;21.60;99.90;;;;;;2045340;28;19929;-79
2023/08/21 03:00:08;;;;;;;;;;;21.60;99.90;;;;;;2053336;28;19918;-79
2023/08/21 03:01:09;;;;;;;;;;;21.60;99.90;;;;;;2050347;28;20366;-79
2023/08/21 03:02:09;;;;;;;;;;;21.60;99.90;;;;;;2050432;28;19918;-78
2023/08/21 03:03:11;;;;;;;;;;;21.60;99.90;;;;;;2046814;28;19934;-79
2023/08/21 03:04:11;;;;;;;;;;;21.60;99.90;;;;;;2049183;28;20017;-78
2023/08/21 03:05:13;;;;;;;;;;;21.70;99.90;;;;;;2060152;28;19925;-78
2023/08/21 03:06:13;;;;;;;;;;;21.70;99.90;;;;;;2060336;28;19914;-79
2023/08/21 03:07:14;;;;;;;;;;;21.70;99.90;;;;;;2059196;28;19949;-79
2023/08/21 03:08:15;;;;;;;;;;;21.70;99.90;;;;;;2057270;28;20603;-78
2023/08/21 03:09:15;;;;;;;;;;;21.80;99.90;;;;;;2051655;28;19961;-79
2023/08/21 03:10:16;;;;;;;;;;;21.80;99.90;;;;;;2042935;28;20236;-79
2023/08/21 03:11:16;;;;;;;;;;;21.80;99.90;;;;;;2050877;28;19954;-79
2023/08/21 03:12:17;;;;;;;;;;;21.80;99.90;;;;;;2057194;28;19928;-79
2023/08/21 03:13:17;;;;;;;;;;;21.80;99.90;;;;;;2059509;28;20474;-80
2023/08/21 03:14:18;;;;;;;;;;;21.80;99.90;;;;;;2059542;28;20444;-80
2023/08/21 03:15:18;;;;;;;;;;;21.80;99.90;;;;;;2054804;28;19918;-77
2023/08/21 03:16:19;;;;;;;;;;;21.80;99.90;;;;;;2061355;28;20302;-78
2023/08/21 03:17:19;;;;;;;;;;;21.80;99.90;;;;;;2054804;28;20020;-80
2023/08/21 03:18:20;;;;;;;;;;;21.80;99.90;;;;;;2059193;28;19925;-78
2023/08/21 03:19:20;;;;;;;;;;;21.80;99.90;;;;;;2056130;28;19918;-78
2023/08/21 03:20:21;;;;;;;;;;;21.70;99.90;;;;;;2049587;28;20537;-78
2023/08/21 03:21:23;;;;;;;;;;;21.70;99.90;;;;;;2051382;28;19953;-78
2023/08/21 03:22:23;;;;;;;;;;;21.70;99.90;;;;;;2057542;28;20010;-78
2023/08/21 03:23:24;;;;;;;;;;;21.70;99.90;;;;;;2055916;28;20076;-78
2023/08/21 03:24:25;;;;;;;;;;;21.70;99.90;;;;;;2057107;28;19929;-78
2023/08/21 03:25:27;;;;;;;;;;;21.70;99.90;;;;;;2062668;28;19917;-78
2023/08/21 03:26:27;;;;;;;;;;;21.70;99.90;;;;;;2049258;28;19919;-78
2023/08/21 03:27:29;;;;;;;;;;;21.60;99.90;;;;;;2050023;28;20009;-79
2023/08/21 03:28:30;;;;;;;;;;;21.60;99.90;;;;;;2051299;28;19914;-79
2023/08/21 03:29:31;;;;;;;;;;;21.60;99.90;;;;;;2051417;28;20021;-78
2023/08/21 03:30:31;;;;;;;;;;;21.60;99.90;;;;;;2061236;28;19918;-79
2023/08/21 03:31:32;;;;;;;;;;;21.50;99.90;;;;;;2059088;28;19960;-78
2023/08/21 03:32:33;;;;;;;;;;;21.50;99.90;;;;;;2051145;28;19942;-79
2023/08/21 03:33:33;;;;;;;;;;;21.50;99.90;;;;;;2056806;28;19972;-79
2023/08/21 03:34:34;;;;;;;;;;;21.50;99.90;;;;;;2061165;28;19914;-78
2023/08/21 03:35:36;;;;;;;;;;;21.50;99.90;;;;;;2046390;28;20012;-79
2023/08/21 03:36:38;;;;;;;;;;;21.50;99.90;;;;;;2054580;28;19918;-78
2023/08/21 03:37:39;;;;;;;;;;;21.50;99.90;;;;;;2054371;28;19919;-80
2023/08/21 03:38:41;;;;;;;;;;;21.50;99.90;;;;;;2056169;28;19918;-79
2023/08/21 03:39:43;;;;;;;;;;;21.50;99.90;;;;;;2065383;28;19918;-80
2023/08/21 03:40:45;;;;;;;;;;;21.50;99.90;;;;;;2055787;28;19921;-79
2023/08/21 03:41:45;;;;;;;;;;;21.50;99.90;;;;;;2046505;28;19915;-80
2023/08/21 03:42:47;;;;;;;;;;;21.50;99.90;;;;;;2042991;28;19962;-79
2023/08/21 03:43:47;;;;;;;;;;;21.50;99.90;;;;;;2045146;28;19919;-79
2023/08/21 03:44:49;;;;;;;;;;;21.40;99.90;;;;;;2059095;28;20393;-80
2023/08/21 03:45:50;;;;;;;;;;;21.40;99.90;;;;;;2059215;28;19972;-80
2023/08/21 03:46:52;;;;;;;;;;;21.40;99.90;;;;;;2059170;28;19918;-80
2023/08/21 03:47:52;;;;;;;;;;;21.40;99.90;;;;;;2061232;28;19921;-80
2023/08/21 03:48:54;;;;;;;;;;;21.40;99.90;;;;;;2061297;28;19918;-80
2023/08/21 03:49:55;;;;;;;;;;;21.40;99.90;;;;;;2059217;28;20374;-78
2023/08/21 03:50:57;;;;;;;;;;;21.40;99.90;;;;;;2047054;28;20219;-79
2023/08/21 03:51:58;;;;;;;;;;;21.40;99.90;;;;;;2047047;28;19919;-79
2023/08/21 03:52:59;;;;;;;;;;;21.40;99.90;;;;;;2059209;28;19969;-80
2023/08/21 03:53:59;;;;;;;;;;;21.40;99.90;;;;;;2056958;28;19984;-79
2023/08/21 03:55:00;;;;;;;;;;;21.40;99.90;;;;;;2040610;28;19922;-80
2023/08/21 03:56:02;;;;;;;;;;;21.40;99.90;;;;;;2048037;28;19992;-80
2023/08/21 03:57:03;;;;;;;;;;;21.40;99.90;;;;;;2056404;28;19921;-79
2023/08/21 03:58:03;;;;;;;;;;;21.30;99.90;;;;;;2062171;28;20278;-80
2023/08/21 03:59:04;;;;;;;;;;;21.30;99.90;;;;;;2059093;28;20270;-80
2023/08/21 04:00:05;;;;;;;;;;;21.30;99.90;;;;;;2058964;28;19921;-79
2023/08/21 04:01:15;;;;;;;;;;;21.30;99.90;;;;;;2059939;28;20008;-80
2023/08/21 04:02:17;;;;;;;;;;;21.30;99.90;;;;;;2060249;28;20181;-79
2023/08/21 04:03:17;;;;;;;;;;;21.30;99.90;;;;;;2058401;28;20416;-79
2023/08/21 04:04:19;;;;;;;;;;;21.30;99.90;;;;;;2061009;28;19924;-79
2023/08/21 04:05:20;;;;;;;;;;;21.30;99.90;;;;;;2046660;28;20070;-79
2023/08/21 04:06:20;;;;;;;;;;;21.30;99.90;;;;;;2049980;28;20376;-80
2023/08/21 04:07:22;;;;;;;;;;;21.30;99.90;;;;;;2060070;28;19925;-78
2023/08/21 04:08:22;;;;;;;;;;;21.30;99.90;;;;;;2061192;28;19917;-81
2023/08/21 04:09:23;;;;;;;;;;;21.40;99.90;;;;;;2060831;28;20393;-80
2023/08/21 04:10:24;;;;;;;;;;;21.30;99.90;;;;;;2055460;28;20001;-80
2023/08/21 04:11:25;;;;;;;;;;;21.30;99.90;;;;;;2060774;28;19933;-80
2023/08/21 04:12:25;;;;;;;;;;;21.30;99.90;;;;;;2051938;28;20487;-78
2023/08/21 04:13:26;;;;;;;;;;;21.30;99.90;;;;;;2049413;28;20356;-79
2023/08/21 04:14:26;;;;;;;;;;;21.30;99.90;;;;;;2056271;28;19970;-78
2023/08/21 04:15:28;;;;;;;;;;;21.30;99.90;;;;;;2053625;28;19980;-79
2023/08/21 04:16:28;;;;;;;;;;;21.30;99.90;;;;;;2059305;28;20392;-79
2023/08/21 04:17:29;;;;;;;;;;;21.30;99.90;;;;;;2061311;28;20252;-79
2023/08/21 04:18:29;;;;;;;;;;;21.30;99.90;;;;;;2051424;28;20091;-79
2023/08/21 04:19:32;;;;;;;;;;;21.30;99.90;;;;;;2058354;28;20090;-79
2023/08/21 04:20:33;;;;;;;;;;;21.30;99.90;;;;;;2067270;28;19948;-79
2023/08/21 04:21:33;;;;;;;;;;;21.30;99.90;;;;;;2053919;28;19921;-79
2023/08/21 04:22:34;;;;;;;;;;;21.30;99.90;;;;;;2056282;28;19914;-79
2023/08/21 04:23:34;;;;;;;;;;;21.30;99.90;;;;;;2056991;28;19915;-80
2023/08/21 04:24:35;;;;;;;;;;;21.30;99.90;;;;;;2063868;28;20382;-80
2023/08/21 04:25:35;;;;;;;;;;;21.30;99.90;;;;;;2058703;28;19918;-79
2023/08/21 04:26:36;;;;;;;;;;;21.30;99.90;;;;;;2061249;28;20465;-80
2023/08/21 04:27:37;;;;;;;;;;;21.40;99.90;;;;;;2059223;28;19965;-81
2023/08/21 04:28:37;;;;;;;;;;;21.30;99.90;;;;;;2051020;28;19918;-80
2023/08/21 04:29:39;;;;;;;;;;;21.40;99.90;;;;;;2053536;28;19921;-79
2023/08/21 04:30:41;;;;;;;;;;;21.40;99.90;;;;;;2063456;28;19972;-78
2023/08/21 04:31:42;;;;;;;;;;;21.40;99.90;;;;;;2057162;28;19918;-78
2023/08/21 04:32:42;;;;;;;;;;;21.40;99.90;;;;;;2063477;28;19920;-78
2023/08/21 04:33:43;;;;;;;;;;;21.40;99.90;;;;;;2054939;28;19913;-75
2023/08/21 04:34:44;;;;;;;;;;;21.40;99.90;;;;;;2052644;28;20394;-76
2023/08/21 04:35:44;;;;;;;;;;;21.40;99.90;;;;;;2058770;28;20016;-77
2023/08/21 04:36:45;;;;;;;;;;;21.50;99.90;;;;;;2059445;28;19922;-77
2023/08/21 04:37:48;;;;;;;;;;;21.50;99.90;;;;;;2058735;28;19939;-76
2023/08/21 04:38:51;;;;;;;;;;;21.50;99.90;;;;;;2051252;28;19919;-75
2023/08/21 04:39:52;;;;;;;;;;;21.60;99.90;;;;;;2060844;28;19917;-76
2023/08/21 04:40:52;;;;;;;;;;;21.60;99.90;;;;;;2065771;28;20072;-76
2023/08/21 04:41:53;;;;;;;;;;;21.60;99.90;;;;;;2058706;28;19953;-77
2023/08/21 04:42:54;;;;;;;;;;;21.50;99.90;;;;;;2045989;28;19914;-77
2023/08/21 04:43:56;;;;;;;;;;;21.50;99.90;;;;;;2052711;28;19914;-77
2023/08/21 04:44:58;;;;;;;;;;;21.60;99.90;;;;;;2050480;28;20423;-77
2023/08/21 04:45:59;;;;;;;;;;;21.60;99.90;;;;;;2050877;28;19973;-76
2023/08/21 04:47:18;;;;;;;;;;;21.60;99.90;;;;;;2049984;28;19945;-77
2023/08/21 04:48:20;;;;;;;;;;;21.60;99.90;;;;;;2049783;28;19949;-77
2023/08/21 04:49:23;;;;;;;;;;;21.70;99.90;;;;;;2046325;28;19954;-76
2023/08/21 04:50:24;;;;;;;;;;;21.70;99.90;;;;;;2056273;28;20354;-76
2023/08/21 04:51:24;;;;;;;;;;;21.70;99.90;;;;;;2053551;28;19956;-77
2023/08/21 04:52:26;;;;;;;;;;;21.70;99.90;;;;;;2058088;28;19914;-76
2023/08/21 04:53:27;;;;;;;;;;;21.70;99.90;;;;;;2050691;28;19925;-76
2023/08/21 04:54:28;;;;;;;;;;;21.80;99.90;;;;;;2056331;28;20021;-77
2023/08/21 04:55:28;;;;;;;;;;;21.80;99.90;;;;;;2050454;28;19918;-76
2023/08/21 04:56:29;;;;;;;;;;;21.80;99.90;;;;;;2050370;28;20279;-76
2023/08/21 04:57:31;;;;;;;;;;;21.80;99.90;;;;;;2052232;28;19914;-76
2023/08/21 04:58:32;;;;;;;;;;;21.80;99.90;;;;;;2054318;28;20302;-75
2023/08/21 04:59:33;;;;;;;;;;;21.90;99.90;;;;;;2045954;28;19925;-74
2023/08/21 05:00:34;;;;;;;;;;;21.90;99.90;;;;;;2047912;28;19918;-74
2023/08/21 05:01:34;;;;;;;;;;;21.90;99.90;;;;;;2045913;28;20298;-76
2023/08/21 05:02:36;;;;;;;;;;;22.00;99.90;;;;;;2058483;28;20385;-75
2023/08/21 05:03:36;;;;;;;;;;;22.00;99.90;;;;;;2047717;28;19915;-75
2023/08/21 05:04:37;;;;;;;;;;;22.00;99.90;;;;;;2055423;28;19918;-75
2023/08/21 05:05:38;;;;;;;;;;;22.00;99.90;;;;;;2064672;28;19917;-76
2023/08/21 05:06:38;;;;;;;;;;;22.10;99.90;;;;;;2055018;28;20431;-76
2023/08/21 05:07:38;;;;;;;;;;;22.10;99.90;;;;;;2055812;28;19921;-76
2023/08/21 05:08:39;;;;;;;;;;;22.20;99.90;;;;;;2058593;28;20348;-75
2023/08/21 05:09:42;;;;;;;;;;;22.20;99.90;;;;;;2052919;28;19926;-76
2023/08/21 05:10:44;;;;;;;;;;;22.30;99.90;;;;;;2043978;28;19927;-75
2023/08/21 05:11:45;;;;;;;;;;;22.40;99.90;;;;;;2049239;28;20294;-76
2023/08/21 05:12:48;;;;;;;;;;;22.60;99.90;;;;;;2045948;28;19919;-77
2023/08/21 05:13:48;;;;;;;;;;;22.80;99.90;;;;;;2048532;28;19922;-77
2023/08/21 05:14:52;;;;;;;;;;;23.00;99.90;;;;;;2050815;28;19914;-75
2023/08/21 05:15:54;;;;;;;;;;;23.20;99.90;;;;;;2047768;28;19926;-75
2023/08/21 05:16:55;;;;;;;;;;;23.40;99.90;;;;;;2050491;28;19914;-76
2023/08/21 05:17:55;;;;;;;;;;;23.70;99.90;;;;;;2054162;28;19921;-76
2023/08/21 05:18:57;;;;;;;;;;;23.80;99.90;;;;;;2057710;28;19921;-75
2023/08/21 05:19:58;;;;;;;;;;;24.00;99.90;;;;;;2048144;28;19972;-76
2023/08/21 05:20:59;;;;;;;;;;;24.10;99.90;;;;;;2058007;28;19922;-75
2023/08/21 05:21:59;;;;;;;;;;;24.20;99.90;;;;;;2057066;28;19918;-75
2023/08/21 05:23:00;;;;;;;;;;;24.40;99.90;;;;;;2058322;28;20004;-76
2023/08/21 05:24:01;;;;;;;;;;;24.40;99.90;;;;;;2056468;28;19915;-76
2023/08/21 05:25:02;;;;;;;;;;;24.60;99.90;;;;;;2055158;28;19956;-75
2023/08/21 05:26:03;;;;;;;;;;;24.70;99.90;;;;;;2057959;28;20364;-76
2023/08/21 05:27:04;;;;;;;;;;;24.90;99.90;;;;;;2056766;28;20045;-75
2023/08/21 05:28:05;;;;;;;;;;;25.00;99.90;;;;;;2055761;28;19949;-75
2023/08/21 05:29:06;;;;;;;;;;;25.10;99.90;;;;;;2055833;28;19918;-75
2023/08/21 05:30:07;;;;;;;;;;;25.20;99.90;;;;;;2060103;28;20338;-75
2023/08/21 05:31:07;;;;;;;;;;;25.30;99.90;;;;;;2050086;28;20372;-74
2023/08/21 05:32:19;;;;;;;;;;;25.30;99.90;;;;;;2045168;28;19972;-75
2023/08/21 05:33:20;;;;;;;;;;;25.30;99.90;;;;;;2050063;28;19997;-75
2023/08/21 05:34:25;;;;;;;;;;;25.40;99.90;;;;;;2046005;28;19958;-75
2023/08/21 05:35:26;;;;;;;;;;;25.40;99.90;;;;;;2049814;28;19914;-75
2023/08/21 05:36:26;;;;;;;;;;;25.50;99.90;;;;;;2047872;28;20402;-75
2023/08/21 05:37:27;;;;;;;;;;;25.60;99.90;;;;;;2050305;28;19926;-75
2023/08/21 05:38:29;;;;;;;;;;;25.70;99.90;;;;;;2057155;28;19924;-75
2023/08/21 05:39:30;;;;;;;;;;;25.90;99.90;;;;;;2041231;28;19925;-76
2023/08/21 05:40:30;;;;;;;;;;;26.00;99.90;;;;;;2046659;28;20336;-75
2023/08/21 05:41:32;;;;;;;;;;;26.20;99.90;;;;;;2054972;28;20357;-75
2023/08/21 05:42:32;;;;;;;;;;;26.30;99.90;;;;;;2052944;28;19953;-75
2023/08/21 05:43:34;;;;;;;;;;;26.40;99.90;;;;;;2046015;28;20030;-75
2023/08/21 05:44:36;;;;;;;;;;;26.40;99.90;;;;;;2054182;28;19918;-75
2023/08/21 05:45:36;;;;;;;;;;;26.40;99.90;;;;;;2056627;28;20424;-75
2023/08/21 05:46:37;;;;;;;;;;;26.40;99.90;;;;;;2057601;28;20448;-76
2023/08/21 05:47:38;;;;;;;;;;;26.30;99.90;;;;;;2058722;28;19913;-75
2023/08/21 05:48:39;;;;;;;;;;;26.30;99.90;;;;;;2058344;28;19925;-75
2023/08/21 05:49:40;;;;;;;;;;;26.20;99.90;;;;;;2058291;28;19921;-76
2023/08/21 05:50:41;;;;;;;;;;;26.10;99.90;;;;;;2058033;28;20188;-76
2023/08/21 05:51:41;;;;;;;;;;;26.10;99.90;;;;;;2058307;28;20431;-74
2023/08/21 05:52:42;;;;;;;;;;;25.90;99.90;;;;;;2068259;28;19917;-74
2023/08/21 05:53:43;;;;;;;;;;;25.80;99.90;;;;;;2053796;28;19992;-75
2023/08/21 05:54:43;;;;;;;;;;;25.60;99.90;;;;;;2049701;28;19918;-75
2023/08/21 05:55:44;;;;;;;;;;;25.50;99.90;;;;;;2049849;28;20428;-76